Time;durP1;ratioP1;P1;durP2;ratioP2;P2;SDS_P1;SDS_P2;PMS_P1;PMS_P2;Temp;Humidity;BMP_temperature;BMP_pressure;BME280_temperature;BME280_humidity;BME280_pressure;Samples;Min_cycle;Max_cycle;Signal;HPM_P1;HPM_P2
2022/06/19 00:02:10;;;;;;;11.73;7.30;;;;;;;17.98;64.56;95630.50;6274134;22;20011;-84
2022/06/19 00:04:36;;;;;;;12.13;6.78;;;;;;;18.19;64.35;95656.78;6274205;22;20011;-84
2022/06/19 00:07:02;;;;;;;15.35;6.90;;;;;;;17.89;63.79;95594.78;6276582;22;20411;-84
2022/06/19 00:09:27;;;;;;;15.93;7.45;;;;;;;18.60;64.01;95705.66;6274198;22;20074;-84
2022/06/19 00:11:55;;;;;;;11.98;7.03;;;;;;;18.59;63.73;95704.06;6273504;22;20011;-84
2022/06/19 00:14:21;;;;;;;15.90;6.88;;;;;;;18.28;64.21;95682.59;6273872;22;20011;-84
2022/06/19 00:16:46;;;;;;;11.73;7.45;;;;;;;18.41;64.46;95684.38;6274108;22;20085;-84
2022/06/19 00:19:13;;;;;;;15.57;6.72;;;;;;;18.47;64.37;95704.59;6275687;22;20004;-84
2022/06/19 00:21:38;;;;;;;16.02;6.50;;;;;;;18.44;64.64;95715.19;6274018;22;20030;-83
2022/06/19 00:24:04;;;;;;;14.32;6.68;;;;;;;18.51;64.26;95704.78;6274018;22;20007;-84
2022/06/19 00:26:30;;;;;;;14.25;6.90;;;;;;;18.54;64.19;95703.38;6273122;22;20000;-84
2022/06/19 00:28:56;;;;;;;17.35;7.65;;;;;;;18.33;64.37;95705.81;6275119;22;20008;-83
2022/06/19 00:31:21;;;;;;;15.30;7.47;;;;;;;18.25;64.22;95687.78;6273696;22;20012;-84
2022/06/19 00:33:47;;;;;;;17.52;7.00;;;;;;;17.63;64.48;95591.97;6275548;22;20014;-84
2022/06/19 00:36:12;;;;;;;14.35;6.32;;;;;;;17.81;64.71;95626.94;6275295;22;20015;-84
2022/06/19 00:38:38;;;;;;;11.75;7.30;;;;;;;18.13;64.50;95667.69;6273355;22;20458;-84
2022/06/19 00:41:04;;;;;;;13.10;7.25;;;;;;;18.38;64.45;95705.69;6275940;22;20573;-84
2022/06/19 00:43:30;;;;;;;10.75;6.82;;;;;;;18.26;64.82;95697.41;6275080;22;20015;-84
2022/06/19 00:46:03;;;;;;;12.63;6.80;;;;;;;17.83;64.60;95622.88;6274834;22;19999;-84
2022/06/19 00:48:34;;;;;;;11.93;6.85;;;;;;;17.95;64.67;95651.78;6274611;22;20435;-84
2022/06/19 00:51:02;;;;;;;14.25;7.30;;;;;;;17.81;64.45;95646.50;6275632;22;20022;-84
2022/06/19 00:53:36;;;;;;;15.65;7.40;;;;;;;18.27;64.25;95702.47;6275572;22;20453;-84
2022/06/19 00:56:02;;;;;;;10.43;6.90;;;;;;;17.46;64.43;95599.13;6275165;22;20090;-84
2022/06/19 00:58:33;;;;;;;17.15;7.22;;;;;;;17.24;65.25;95589.97;6275547;22;20034;-84
2022/06/19 01:01:04;;;;;;;16.00;7.53;;;;;;;17.73;65.60;95690.97;6275771;22;20003;-83
2022/06/19 01:03:40;;;;;;;10.23;6.95;;;;;;;17.97;65.49;95708.63;6274106;22;20054;-84
2022/06/19 01:06:08;;;;;;;11.48;6.93;;;;;;;18.02;65.38;95714.66;6275697;22;20004;-84
2022/06/19 01:08:34;;;;;;;12.40;7.22;;;;;;;17.77;65.18;95660.88;6273776;22;20015;-84
2022/06/19 01:11:00;;;;;;;15.32;8.20;;;;;;;17.54;65.86;95646.66;6273068;22;20015;-84
2022/06/19 01:13:29;;;;;;;13.35;7.78;;;;;;;17.91;65.72;95701.81;6274092;22;20015;-83
2022/06/19 01:15:55;;;;;;;13.82;7.45;;;;;;;17.02;66.35;95595.31;6273711;22;20069;-84
2022/06/19 01:18:21;;;;;;;9.10;6.85;;;;;;;16.93;66.23;95578.41;6275092;22;20015;-84
2022/06/19 01:20:52;;;;;;;12.45;7.22;;;;;;;17.25;66.22;95614.88;6273624;22;20062;-83
2022/06/19 01:23:37;;;;;;;13.60;7.40;;;;;;;17.40;65.68;95627.13;6273647;22;20343;-83
2022/06/19 01:26:04;;;;;;;13.90;7.45;;;;;;;17.27;65.41;95596.63;6273764;22;20571;-83
2022/06/19 01:31:20;;;;;;;9.43;7.60;;;;;;;17.20;65.47;95577.50;6275052;22;20018;-83
2022/06/19 01:33:55;;;;;;;18.35;8.00;;;;;;;18.05;65.27;95692.59;6273645;22;20464;-84
2022/06/19 01:36:22;;;;;;;10.52;7.43;;;;;;;17.19;65.07;95586.63;6273431;22;20102;-84
2022/06/19 01:38:50;;;;;;;12.55;7.47;;;;;;;17.64;65.71;95665.19;6275167;22;20037;-84
2022/06/19 01:41:36;;;;;;;13.57;7.32;;;;;;;17.78;65.79;95692.72;6273072;22;20008;-83
2022/06/19 01:44:02;;;;;;;14.00;7.95;;;;;;;16.77;65.56;95523.59;6273136;22;20007;-84
2022/06/19 01:46:29;;;;;;;11.77;7.07;;;;;;;17.44;66.05;95662.97;6275948;22;20004;-84
2022/06/19 01:48:56;;;;;;;12.60;7.90;;;;;;;17.30;66.92;95673.75;6273148;22;20003;-85
2022/06/19 01:51:22;;;;;;;18.73;7.50;;;;;;;16.71;66.80;95584.50;6272979;22;20008;-83
2022/06/19 01:53:59;;;;;;;12.55;6.78;;;;;;;16.63;66.34;95550.41;6274124;22;20342;-84
2022/06/19 01:56:25;;;;;;;14.15;7.90;;;;;;;17.04;67.10;95644.06;6273877;22;20057;-84
2022/06/19 01:58:55;;;;;;;10.80;7.90;;;;;;;16.85;66.50;95600.56;6274516;22;20011;-84
2022/06/19 02:01:21;;;;;;;9.27;6.90;;;;;;;17.01;66.73;95633.97;6273259;22;20080;-84
2022/06/19 02:03:57;;;;;;;12.10;7.82;;;;;;;17.36;66.78;95700.13;6273601;22;20345;-83
2022/06/19 02:06:30;;;;;;;17.70;7.30;;;;;;;17.44;66.62;95709.34;6276011;22;20331;-84
2022/06/19 02:08:56;;;;;;;9.13;7.03;;;;;;;17.36;66.68;95688.63;6273955;22;20012;-84
2022/06/19 02:11:22;;;;;;;16.55;7.28;;;;;;;16.84;65.86;95586.38;6274225;22;20454;-84
2022/06/19 02:13:48;;;;;;;12.15;8.10;;;;;;;17.40;66.02;95678.06;6273786;22;20009;-84
2022/06/19 02:16:18;;;;;;;17.13;7.65;;;;;;;17.30;65.68;95663.03;6276053;22;20400;-84
2022/06/19 02:18:48;;;;;;;13.70;7.28;;;;;;;17.26;65.83;95657.47;6273238;22;20012;-85
2022/06/19 02:21:21;;;;;;;10.60;7.43;;;;;;;17.60;65.65;95707.09;6272942;22;20030;-85
2022/06/19 02:23:48;;;;;;;15.02;7.38;;;;;;;17.65;65.63;95712.38;6275345;22;20003;-84
2022/06/19 02:26:15;;;;;;;12.68;8.35;;;;;;;17.14;65.07;95649.19;6273732;22;20408;-84
2022/06/19 02:28:46;;;;;;;10.25;7.28;;;;;;;17.28;65.50;95695.50;6273235;22;20035;-84
2022/06/19 02:31:11;;;;;;;14.15;8.15;;;;;;;16.76;65.81;95618.44;6274061;22;20414;-85
2022/06/19 02:33:44;;;;;;;9.60;6.30;;;;;;;16.55;65.31;95605.44;6277108;22;20003;-84
2022/06/19 02:36:51;;;;;;;8.43;6.13;;;;;;;17.15;65.23;95715.09;6277482;22;20015;-85
2022/06/19 02:39:49;;;;;;;8.23;5.90;;;;;;;17.10;65.35;95728.59;6128145;23;20029;-85
2022/06/19 02:42:20;;;;;;;9.25;6.03;;;;;;;17.05;65.38;95722.56;6153379;23;20015;-84
2022/06/19 02:44:50;;;;;;;9.27;6.07;;;;;;;16.97;65.98;95719.50;6244432;22;20030;-83
2022/06/19 02:47:16;;;;;;;15.50;7.00;;;;;;;16.62;65.58;95642.56;6275160;22;20073;-84
2022/06/19 02:49:41;;;;;;;10.07;6.55;;;;;;;16.75;65.20;95646.31;6277408;22;20007;-84
2022/06/19 02:52:10;;;;;;;11.23;7.00;;;;;;;16.90;64.95;95691.53;6276720;22;20022;-84
2022/06/19 02:54:36;;;;;;;13.40;6.35;;;;;;;17.12;64.54;95729.09;6275494;22;20004;-83
2022/06/19 02:57:01;;;;;;;11.73;6.28;;;;;;;17.01;64.83;95721.59;6275215;22;20089;-83
2022/06/19 02:59:27;;;;;;;8.98;6.03;;;;;;;16.43;64.26;95628.47;6277350;22;20391;-83
2022/06/19 03:01:52;;;;;;;8.75;5.63;;;;;;;17.28;63.70;95741.06;6276826;22;20039;-83
2022/06/19 03:04:23;;;;;;;11.30;6.40;;;;;;;17.06;63.81;95718.78;6276463;22;20426;-84
2022/06/19 03:06:49;;;;;;;11.55;6.30;;;;;;;17.09;64.04;95737.72;6275214;22;20003;-84
2022/06/19 03:09:15;;;;;;;10.30;5.93;;;;;;;16.79;64.04;95676.75;6275860;22;20011;-84
2022/06/19 03:11:40;;;;;;;10.18;6.38;;;;;;;16.76;63.63;95664.78;6276407;22;20029;-85
2022/06/19 03:14:06;;;;;;;12.02;6.40;;;;;;;16.98;63.98;95701.53;6277752;22;20011;-83
2022/06/19 03:16:32;;;;;;;7.80;6.00;;;;;;;16.73;64.30;95662.69;6277117;22;20008;-83
2022/06/19 03:18:58;;;;;;;13.23;5.78;;;;;;;16.96;63.97;95704.50;6275977;22;20413;-83
2022/06/19 03:21:24;;;;;;;16.05;6.72;;;;;;;16.64;64.09;95656.44;6277057;22;20003;-84
2022/06/19 03:23:49;;;;;;;10.27;6.55;;;;;;;16.95;63.70;95712.84;6277148;22;20377;-84
2022/06/19 03:26:15;;;;;;;7.60;6.47;;;;;;;17.07;63.67;95729.22;6274644;22;20034;-84
2022/06/19 03:28:40;;;;;;;7.90;6.25;;;;;;;15.97;64.36;95594.59;6276661;22;20007;-84
2022/06/19 03:31:06;;;;;;;9.70;7.18;;;;;;;16.52;64.38;95685.59;6276362;22;20003;-85
2022/06/19 03:33:31;;;;;;;12.10;6.82;;;;;;;15.98;64.56;95598.06;6275144;22;20372;-84
2022/06/19 03:35:57;;;;;;;10.45;6.95;;;;;;;17.09;64.51;95736.97;6276322;22;20390;-84
2022/06/19 03:38:22;;;;;;;10.40;6.53;;;;;;;16.61;64.76;95675.00;6273735;22;20023;-84
2022/06/19 03:40:48;;;;;;;8.57;6.97;;;;;;;16.02;64.61;95575.75;6274748;22;20042;-84
2022/06/19 03:43:14;;;;;;;9.13;7.25;;;;;;;17.15;64.42;95733.06;6275852;22;20010;-84
2022/06/19 03:45:39;;;;;;;12.38;7.55;;;;;;;16.62;64.60;95671.22;6273643;22;20066;-84
2022/06/19 03:48:06;;;;;;;12.50;7.22;;;;;;;16.95;64.45;95702.91;6276704;22;20014;-84
2022/06/19 03:50:31;;;;;;;10.02;6.97;;;;;;;17.20;64.52;95736.41;6277085;22;20067;-85
2022/06/19 03:52:57;;;;;;;13.23;7.38;;;;;;;16.70;64.73;95665.97;6276413;22;20138;-84
2022/06/19 03:55:22;;;;;;;8.73;6.40;;;;;;;16.69;64.46;95655.56;6276680;22;20034;-84
2022/06/19 03:57:47;;;;;;;7.55;6.07;;;;;;;17.27;64.45;95744.84;6274549;22;20008;-84
2022/06/19 04:00:16;;;;;;;10.05;8.23;;;;;;;16.97;64.42;95690.03;6276843;22;20015;-84
2022/06/19 04:02:43;;;;;;;25.30;20.85;;;;;;;17.40;63.96;95737.06;6275909;22;20466;-83
2022/06/19 04:05:10;;;;;;;22.52;17.67;;;;;;;16.80;63.94;95644.31;6274877;22;20011;-84
2022/06/19 04:07:43;;;;;;;33.60;26.60;;;;;;;17.06;63.84;95674.03;6274880;22;20023;-83
2022/06/19 04:10:09;;;;;;;28.75;22.67;;;;;;;17.14;64.04;95692.06;6276620;22;20007;-83
2022/06/19 04:12:34;;;;;;;16.33;12.00;;;;;;;17.52;64.12;95754.22;6276076;22;20402;-84
2022/06/19 04:15:00;;;;;;;10.85;6.15;;;;;;;17.58;63.13;95753.00;6275064;22;20014;-84
2022/06/19 04:17:25;;;;;;;11.52;5.53;;;;;;;17.56;62.63;95747.13;6276504;22;20011;-84
2022/06/19 04:19:51;;;;;;;8.82;5.43;;;;;;;17.67;62.54;95737.78;6274782;22;20018;-84
2022/06/19 04:22:16;;;;;;;8.07;6.13;;;;;;;17.39;62.81;95706.78;6274988;22;20015;-84
2022/06/19 04:24:42;;;;;;;8.57;6.40;;;;;;;17.28;62.57;95678.63;6274512;22;20086;-84
2022/06/19 04:27:07;;;;;;;10.15;6.25;;;;;;;17.40;62.48;95703.00;6274772;22;19999;-85
2022/06/19 04:29:33;;;;;;;10.05;6.57;;;;;;;17.14;62.92;95659.13;6274894;22;20007;-84
2022/06/19 04:31:58;;;;;;;15.75;6.82;;;;;;;17.54;62.93;95711.81;6274076;22;20008;-84
2022/06/19 04:34:23;;;;;;;8.55;5.85;;;;;;;17.72;62.91;95750.28;6275946;22;20031;-84
2022/06/19 04:36:49;;;;;;;17.50;6.82;;;;;;;17.47;62.66;95687.28;6300191;22;20386;-84
2022/06/19 04:39:14;;;;;;;12.88;7.70;;;;;;;17.25;62.49;95655.88;6274572;22;20019;-84
2022/06/19 04:41:43;;;;;;;9.10;6.55;;;;;;;17.72;61.99;95708.16;6276146;22;20008;-84
2022/06/19 04:44:12;;;;;;;12.65;6.57;;;;;;;17.73;62.68;95752.66;6276199;22;20011;-83
2022/06/19 04:46:39;;;;;;;11.98;7.18;;;;;;;16.65;62.34;95572.34;6275915;22;20011;-84
2022/06/19 04:49:04;;;;;;;10.85;6.60;;;;;;;17.95;62.11;95751.88;6274820;22;20003;-84
2022/06/19 04:51:30;;;;;;;11.55;6.45;;;;;;;17.71;61.87;95700.41;6276170;22;20077;-84
2022/06/19 04:53:55;;;;;;;12.68;7.18;;;;;;;17.00;61.86;95583.34;6273425;22;20016;-84
2022/06/19 04:56:21;;;;;;;13.30;7.60;;;;;;;17.74;62.55;95732.78;6275805;22;20039;-84
2022/06/19 04:58:48;;;;;;;12.82;7.53;;;;;;;17.73;62.18;95725.84;6276027;22;20008;-84
2022/06/19 05:01:35;;;;;;;13.68;7.82;;;;;;;17.99;62.25;95757.44;6275964;22;20319;-84
2022/06/19 05:04:05;;;;;;;11.60;8.13;;;;;;;18.08;61.97;95750.19;6274279;22;20034;-84
2022/06/19 05:06:31;;;;;;;15.27;8.23;;;;;;;18.15;61.90;95760.53;6273996;22;20128;-84
2022/06/19 05:08:58;;;;;;;21.23;9.20;;;;;;;17.12;62.91;95623.78;6274019;22;20442;-84
2022/06/19 05:11:25;;;;;;;14.90;9.15;;;;;;;18.12;62.44;95760.03;6273994;22;20019;-83
2022/06/19 05:13:51;;;;;;;14.23;9.50;;;;;;;17.58;62.15;95690.50;6273996;22;20035;-84
2022/06/19 05:16:19;;;;;;;16.40;9.25;;;;;;;17.73;62.65;95704.38;6273218;22;20008;-85
2022/06/19 05:18:45;;;;;;;13.05;8.93;;;;;;;17.77;63.65;95741.34;6273450;22;20015;-84
2022/06/19 05:21:11;;;;;;;14.20;8.98;;;;;;;17.96;63.31;95744.63;6274157;22;20008;-84
2022/06/19 05:23:41;;;;;;;12.23;9.90;;;;;;;17.31;63.89;95657.38;6273589;22;20012;-83
2022/06/19 05:26:17;;;;;;;15.90;9.35;;;;;;;18.05;63.97;95761.56;6273566;22;20019;-83
2022/06/19 05:28:48;;;;;;;17.48;9.27;;;;;;;18.24;63.00;95766.72;6274108;22;20035;-84
2022/06/19 05:31:13;;;;;;;12.77;9.52;;;;;;;18.35;62.77;95766.16;6273215;22;20014;-84
2022/06/19 05:33:39;;;;;;;13.10;9.20;;;;;;;18.39;62.55;95761.75;6275199;22;20340;-84
2022/06/19 05:36:04;;;;;;;15.48;9.38;;;;;;;17.57;62.40;95620.00;6299043;22;20012;-84
2022/06/19 05:38:30;;;;;;;15.50;9.23;;;;;;;17.99;62.44;95684.97;6273369;22;20019;-84
2022/06/19 05:40:57;;;;;;;14.50;9.27;;;;;;;18.35;62.46;95725.09;6273710;22;20011;-84
2022/06/19 05:43:25;;;;;;;15.40;10.80;;;;;;;18.64;62.29;95768.38;6273590;22;20028;-84
2022/06/19 05:45:59;;;;;;;15.63;9.63;;;;;;;18.51;62.43;95763.88;6275251;22;20000;-84
2022/06/19 05:48:25;;;;;;;13.82;10.43;;;;;;;18.44;62.73;95760.84;6275119;22;20011;-84
2022/06/19 05:50:58;;;;;;;14.05;10.93;;;;;;;18.58;62.28;95763.47;6275672;22;20012;-84
2022/06/19 05:53:26;;;;;;;14.05;10.05;;;;;;;18.16;62.63;95684.28;6273212;22;20019;-84
2022/06/19 05:55:51;;;;;;;18.98;10.25;;;;;;;18.19;62.71;95711.28;6273659;22;20412;-85
2022/06/19 05:58:16;;;;;;;15.85;10.50;;;;;;;18.50;62.25;95738.91;6273762;22;20096;-84
2022/06/19 06:00:42;;;;;;;17.02;10.38;;;;;;;18.32;62.79;95731.06;6273348;22;20007;-84
2022/06/19 06:03:16;;;;;;;16.63;10.38;;;;;;;18.35;62.77;95731.25;6275246;22;20019;-84
2022/06/19 06:05:45;;;;;;;15.05;9.68;;;;;;;18.31;62.34;95711.47;6275513;22;20019;-84
2022/06/19 06:08:12;;;;;;;13.95;10.20;;;;;;;18.30;61.93;95682.28;6275354;22;20011;-84
2022/06/19 06:10:37;;;;;;;15.52;9.90;;;;;;;18.63;61.61;95717.66;6272929;22;20004;-84
2022/06/19 06:13:03;;;;;;;12.25;9.32;;;;;;;18.99;61.18;95758.56;6275569;22;20007;-84
2022/06/19 06:15:29;;;;;;;24.13;10.15;;;;;;;18.73;60.95;95714.69;6273033;22;20007;-84
2022/06/19 06:17:54;;;;;;;20.33;10.15;;;;;;;19.05;60.85;95760.00;6272689;22;20015;-84
2022/06/19 06:20:20;;;;;;;15.57;9.43;;;;;;;18.66;60.58;95687.50;6273360;22;20015;-84
2022/06/19 06:22:45;;;;;;;19.52;10.60;;;;;;;18.72;60.58;95695.09;6275512;22;20012;-84
2022/06/19 06:25:11;;;;;;;16.95;8.50;;;;;;;18.43;59.64;95627.66;6273455;22;20023;-84
2022/06/19 06:27:37;;;;;;;15.43;8.30;;;;;;;18.89;58.91;95695.13;6272862;22;20547;-84
2022/06/19 06:30:04;;;;;;;11.07;8.43;;;;;;;18.45;59.37;95636.22;6275019;22;20008;-84
2022/06/19 06:32:29;;;;;;;13.35;8.52;;;;;;;18.71;59.45;95652.41;6273415;22;20114;-84
2022/06/19 06:34:55;;;;;;;13.23;6.47;;;;;;;19.13;58.84;95701.97;6274203;22;20516;-84
2022/06/19 06:37:20;;;;;;;15.10;6.88;;;;;;;19.37;58.58;95739.97;6275651;22;20019;-84
2022/06/19 06:39:46;;;;;;;12.38;5.90;;;;;;;19.42;58.41;95731.72;6275346;22;20046;-84
2022/06/19 06:42:11;;;;;;;10.02;6.10;;;;;;;19.12;58.17;95654.69;6273007;22;20015;-84
2022/06/19 06:44:38;;;;;;;10.70;8.65;;;;;;;19.20;58.93;95694.22;6273250;22;20010;-84
2022/06/19 06:47:03;;;;;;;16.02;10.40;;;;;;;19.52;59.44;95752.19;6273624;22;20011;-85
2022/06/19 06:49:29;;;;;;;18.48;10.10;;;;;;;19.47;59.52;95728.91;6274595;22;20004;-84
2022/06/19 06:51:54;;;;;;;12.95;8.73;;;;;;;19.49;59.17;95731.28;6274422;22;20517;-85
2022/06/19 06:54:20;;;;;;;17.27;8.02;;;;;;;19.72;58.17;95740.78;6273187;22;20012;-84
2022/06/19 06:56:45;;;;;;;16.30;7.38;;;;;;;19.15;57.38;95646.75;6273131;22;20043;-84
2022/06/19 06:59:11;;;;;;;16.70;8.13;;;;;;;19.10;57.94;95644.25;6272609;22;20024;-84
2022/06/19 07:01:36;;;;;;;13.00;7.55;;;;;;;19.43;58.13;95674.16;6275556;22;20010;-85
2022/06/19 07:04:02;;;;;;;13.45;7.75;;;;;;;19.87;57.65;95740.28;6272803;22;20004;-84
2022/06/19 07:06:30;;;;;;;13.10;6.25;;;;;;;19.88;56.72;95728.44;6273404;22;20000;-84
2022/06/19 07:08:56;;;;;;;11.10;6.35;;;;;;;19.41;55.66;95652.16;6273029;22;20458;-83
2022/06/19 07:11:25;;;;;;;12.20;7.10;;;;;;;20.03;55.73;95732.50;6274447;22;20077;-84
2022/06/19 07:13:51;;;;;;;7.78;5.35;;;;;;;19.33;55.57;95609.91;6274897;22;20079;-84
2022/06/19 07:16:17;;;;;;;9.00;4.72;;;;;;;20.16;54.78;95728.84;6273557;22;20018;-84
2022/06/19 07:18:42;;;;;;;8.48;4.95;;;;;;;19.39;55.30;95607.84;6274401;22;20007;-84
2022/06/19 07:21:11;;;;;;;10.10;5.93;;;;;;;20.16;55.06;95703.81;6274987;22;20015;-84
2022/06/19 07:23:38;;;;;;;11.70;6.50;;;;;;;19.96;55.19;95686.44;6274938;22;20000;-84
2022/06/19 07:26:03;;;;;;;11.48;7.38;;;;;;;20.03;54.46;95719.06;6276664;22;20004;-84
2022/06/19 07:28:29;;;;;;;8.77;4.75;;;;;;;20.11;54.68;95693.22;6276368;22;20000;-84
2022/06/19 07:30:54;;;;;;;8.73;4.45;;;;;;;20.30;54.76;95712.47;6274792;22;20014;-84
2022/06/19 07:33:20;;;;;;;10.55;4.47;;;;;;;20.15;54.43;95686.88;6274133;22;20038;-84
2022/06/19 07:35:46;;;;;;;4.80;3.67;;;;;;;19.82;52.97;95640.88;6276874;22;20018;-84
2022/06/19 07:38:11;;;;;;;11.25;4.05;;;;;;;19.59;54.26;95594.56;6274623;22;20540;-84
2022/06/19 07:40:37;;;;;;;6.75;3.85;;;;;;;19.86;52.70;95614.91;6277522;22;20030;-84
2022/06/19 07:43:04;;;;;;;4.68;2.88;;;;;;;20.45;51.60;95697.72;6276546;22;20014;-84
2022/06/19 07:45:30;;;;;;;7.45;3.60;;;;;;;20.29;51.77;95689.38;6276318;22;20007;-84
2022/06/19 07:50:41;;;;;;;7.72;4.03;;;;;;;20.37;51.50;95648.94;6276881;22;20477;-84
2022/06/19 07:53:07;;;;;;;7.78;3.78;;;;;;;20.72;52.30;95687.31;6274446;22;20007;-83
2022/06/19 07:55:32;;;;;;;6.07;2.38;;;;;;;20.56;49.64;95672.00;6274180;22;20736;-84
2022/06/19 07:58:01;;;;;;;2.28;2.00;;;;;;;20.62;48.04;95676.09;6276297;22;20086;-84
2022/06/19 08:00:31;;;;;;;3.22;2.30;;;;;;;20.99;48.27;95707.59;6276446;22;20011;-84
2022/06/19 08:02:57;;;;;;;5.18;1.60;;;;;;;20.02;45.58;95567.50;6274727;22;20028;-84
2022/06/19 08:05:26;;;;;;;4.00;1.88;;;;;;;20.85;46.52;95698.97;6277005;22;20004;-83
2022/06/19 08:07:53;;;;;;;2.25;1.63;;;;;;;20.85;45.23;95690.88;6276364;22;20008;-83
2022/06/19 08:10:23;;;;;;;3.95;2.30;;;;;;;20.70;47.03;95653.69;6276150;22;20004;-84
2022/06/19 08:12:50;;;;;;;7.00;2.03;;;;;;;20.63;43.99;95638.03;6274732;22;20446;-83
2022/06/19 08:15:16;;;;;;;9.27;2.53;;;;;;;21.11;46.19;95702.31;6274645;22;20122;-83
2022/06/19 08:17:41;;;;;;;9.77;1.90;;;;;;;21.16;46.89;95696.75;6274867;22;20065;-84
2022/06/19 08:20:07;;;;;;;2.42;1.67;;;;;;;20.78;46.98;95628.59;6274366;22;20034;-83
2022/06/19 08:22:33;;;;;;;7.18;1.77;;;;;;;20.46;45.18;95573.47;6276398;22;19999;-83
2022/06/19 08:24:58;;;;;;;2.80;1.60;;;;;;;20.67;46.09;95606.63;6276191;22;20008;-83
2022/06/19 08:27:24;;;;;;;4.05;1.95;;;;;;;20.83;44.87;95622.25;6274840;22;20004;-83
2022/06/19 08:29:49;;;;;;;3.70;1.70;;;;;;;21.28;44.69;95690.66;6275334;22;20004;-83
2022/06/19 08:32:15;;;;;;;2.97;1.70;;;;;;;21.13;45.73;95643.41;6273702;22;20008;-83
2022/06/19 08:34:40;;;;;;;4.40;1.70;;;;;;;21.50;44.29;95692.22;6273792;22;20154;-83
2022/06/19 08:37:09;;;;;;;6.30;2.00;;;;;;;20.83;44.50;95587.22;6274480;22;20053;-83
2022/06/19 08:39:36;;;;;;;5.47;2.25;;;;;;;20.74;45.93;95563.00;6276374;22;20015;-83
2022/06/19 08:42:13;;;;;;;4.32;1.88;;;;;;;21.71;43.77;95684.88;6276223;22;20068;-83
2022/06/19 08:44:57;;;;;;;7.43;2.25;;;;;;;21.71;44.32;95692.19;6275811;22;20106;-83
2022/06/19 08:47:41;;;;;;;4.60;1.80;;;;;;;21.67;43.49;95683.16;6273912;22;20058;-83
2022/06/19 08:50:21;;;;;;;6.85;2.17;;;;;;;21.25;44.88;95612.28;6275924;22;20003;-83
2022/06/19 08:52:55;;;;;;;6.10;1.85;;;;;;;21.73;44.59;95682.66;6273964;22;20079;-82
2022/06/19 08:55:52;;;;;;;5.78;1.70;;;;;;;21.81;43.76;95684.47;6273971;22;20015;-84
2022/06/19 08:58:47;;;;;;;3.80;1.52;;;;;;;21.85;43.28;95676.47;6273834;22;20035;-83
2022/06/19 09:01:23;;;;;;;2.13;1.70;;;;;;;21.90;43.64;95681.66;6261096;22;20408;-83
2022/06/19 09:07:22;;;;;;;5.85;1.95;;;;;;;21.90;43.68;95684.38;6275891;22;20060;-83
2022/06/19 09:09:53;;;;;;;6.78;1.55;;;;;;;21.93;43.39;95679.09;6152358;23;20076;-83
2022/06/19 09:12:25;;;;;;;2.33;1.58;;;;;;;21.73;42.81;95631.34;6255671;22;20019;-84
2022/06/19 09:15:00;;;;;;;3.92;1.88;;;;;;;21.99;44.42;95676.22;6273640;22;20073;-83
2022/06/19 09:17:48;;;;;;;2.50;1.77;;;;;;;21.99;42.29;95671.59;6275153;22;20018;-83
2022/06/19 09:20:19;;;;;;;6.93;1.90;;;;;;;22.05;42.35;95667.56;6273830;22;20007;-83
2022/06/19 09:22:55;;;;;;;;;;;;;;;22.24;43.78;95667.84;6274027;22;20011;-84
2022/06/19 09:25:38;;;;;;;1.75;1.35;;;;;;;22.19;42.56;95664.56;6275438;22;19911;-83
2022/06/19 09:28:22;;;;;;;3.10;1.50;;;;;;;22.14;40.30;95665.56;6273338;22;20007;-84
2022/06/19 09:31:06;;;;;;;3.15;1.50;;;;;;;21.92;42.14;95609.22;6275657;22;20520;-83
2022/06/19 09:33:35;;;;;;;2.80;1.48;;;;;;;22.40;43.44;95651.75;6273344;22;20007;-83
2022/06/19 09:36:10;;;;;;;1.40;1.30;;;;;;;21.87;39.68;95563.53;6275717;22;20011;-84
2022/06/19 09:38:48;;;;;;;4.47;1.58;;;;;;;22.49;39.56;95655.16;6275354;22;20026;-83
2022/06/19 09:41:21;;;;;;;4.80;1.67;;;;;;;22.38;41.12;95618.09;6275613;22;20003;-83
2022/06/19 09:44:00;;;;;;;4.30;2.33;;;;;;;22.67;39.25;95607.03;6274019;22;20418;-84
2022/06/19 09:46:33;;;;;;;3.08;1.45;;;;;;;22.82;39.64;95527.94;6273982;22;19999;-83
2022/06/19 09:49:10;;;;;;;7.53;1.70;;;;;;;24.15;36.22;95590.69;6273155;22;20003;-83
2022/06/19 09:51:56;;;;;;;5.63;1.52;;;;;;;25.61;36.42;95598.25;6273473;22;20112;-83
2022/06/19 09:54:24;;;;;;;1.63;1.10;;;;;;;26.64;33.82;95635.41;6273846;22;20012;-83
2022/06/19 09:57:10;;;;;;;5.60;1.27;;;;;;;27.43;31.72;95602.69;6273212;22;20016;-83
2022/06/19 09:59:57;;;;;;;2.20;1.27;;;;;;;28.66;31.12;95629.69;6274642;22;20509;-83
2022/06/19 10:02:37;;;;;;;1.70;1.17;;;;;;;29.18;28.89;95633.16;6273213;22;20035;-83
2022/06/19 10:05:16;;;;;;;4.97;1.43;;;;;;;30.04;26.96;95635.13;6275789;22;20038;-84
2022/06/19 10:07:51;;;;;;;4.03;1.05;;;;;;;30.36;26.61;95591.41;6275913;22;20000;-84
2022/06/19 10:10:40;;;;;;;5.90;1.50;;;;;;;31.17;26.80;95628.13;6275464;22;20003;-84
2022/06/19 10:13:16;;;;;;;3.00;1.30;;;;;;;29.77;26.40;95620.94;6274162;22;20011;-83
2022/06/19 10:15:43;;;;;;;6.25;1.65;;;;;;;29.96;26.88;95507.75;6273538;22;20417;-84
2022/06/19 10:18:13;;;;;;;3.78;1.10;;;;;;;31.25;25.32;95616.75;6274856;22;20374;-84
2022/06/19 10:20:48;;;;;;;3.20;1.10;;;;;;;31.75;24.46;95606.41;6272976;22;20017;-84
2022/06/19 10:23:43;;;;;;;2.38;1.00;;;;;;;31.96;24.20;95596.50;6274996;22;20014;-83
2022/06/19 10:26:35;;;;;;;1.15;1.05;;;;;;;32.43;24.36;95611.47;6230179;22;20047;-84
2022/06/19 10:29:23;;;;;;;3.03;1.30;;;;;;;32.09;23.14;95570.94;6272977;22;20397;-84
2022/06/19 10:32:08;;;;;;;3.10;1.27;;;;;;;32.38;23.70;95596.25;6272824;22;20008;-83
2022/06/19 10:34:39;;;;;;;5.80;1.48;;;;;;;32.13;23.96;95570.91;6273231;22;20030;-84
2022/06/19 10:37:23;;;;;;;5.10;1.63;;;;;;;32.75;22.22;95603.78;6275389;22;20007;-83
2022/06/19 10:40:18;;;;;;;3.33;1.20;;;;;;;33.16;23.73;95603.78;6272812;22;20030;-84
2022/06/19 10:42:53;;;;;;;3.97;1.30;;;;;;;32.66;22.12;95603.44;6273526;22;20076;-84
2022/06/19 10:45:33;;;;;;;1.70;1.00;;;;;;;32.80;23.15;95602.59;6274898;22;20430;-84
2022/06/19 10:48:28;;;;;;;6.10;1.50;;;;;;;32.71;22.27;95600.31;6272654;22;20003;-84
2022/06/19 10:51:03;;;;;;;1.50;1.15;;;;;;;32.49;23.56;95612.63;6275131;22;20011;-83
2022/06/19 10:53:38;;;;;;;3.95;1.13;;;;;;;32.37;23.49;95566.44;6276360;22;20008;-84
2022/06/19 10:56:57;;;;;;;3.20;1.00;;;;;;;32.42;23.74;95598.97;6276869;22;20011;-84
2022/06/19 10:59:23;;;;;;;3.65;1.30;;;;;;;31.87;22.90;95557.78;6128029;23;20075;-83
2022/06/19 11:05:03;;;;;;;2.25;1.17;;;;;;;32.38;22.63;95598.19;6276263;22;20015;-84
2022/06/19 11:07:30;;;;;;;2.30;1.20;;;;;;;32.53;23.28;95589.44;6278939;22;20007;-83
2022/06/19 11:10:01;;;;;;;3.55;1.30;;;;;;;32.66;23.75;95592.47;6279704;22;20066;-84
2022/06/19 11:12:41;;;;;;;4.03;0.90;;;;;;;32.63;22.75;95589.75;6275163;22;20015;-83
2022/06/19 11:15:16;;;;;;;2.67;0.95;;;;;;;32.43;22.50;95586.78;6275440;22;20073;-84
2022/06/19 11:17:42;;;;;;;4.72;1.50;;;;;;;32.33;21.93;95506.09;6276896;22;20023;-83
2022/06/19 11:20:34;;;;;;;2.58;1.00;;;;;;;32.72;23.25;95548.91;6274410;22;20008;-83
2022/06/19 11:23:04;;;;;;;1.20;0.80;;;;;;;32.96;21.79;95531.38;6270859;22;20050;-84
2022/06/19 11:25:33;;;;;;;2.10;1.13;;;;;;;32.91;21.61;95573.81;6274686;22;20014;-83
2022/06/19 11:28:15;;;;;;;2.08;0.98;;;;;;;32.93;20.33;95565.97;6274755;22;20018;-84
2022/06/19 11:30:52;;;;;;;5.05;1.08;;;;;;;32.96;21.20;95523.13;6277250;22;20007;-83
2022/06/19 11:33:35;;;;;;;3.30;0.95;;;;;;;32.53;20.74;95479.63;6275056;22;20407;-84
2022/06/19 11:36:04;;;;;;;4.97;0.95;;;;;;;32.16;23.72;95452.16;6282054;22;20455;-83
2022/06/19 11:38:41;;;;;;;3.15;1.20;;;;;;;32.90;21.60;95555.78;6282157;22;20034;-84
2022/06/19 11:41:30;;;;;;;2.53;1.08;;;;;;;32.96;22.18;95556.88;6275933;22;20098;-84
2022/06/19 11:44:05;;;;;;;3.80;0.98;;;;;;;32.19;21.70;95446.63;6277536;22;20035;-84
2022/06/19 11:46:31;;;;;;;3.53;1.10;;;;;;;32.47;20.02;95505.19;6278235;22;20410;-83
2022/06/19 11:49:17;;;;;;;3.85;1.08;;;;;;;32.39;20.90;95457.03;6274451;22;20014;-83
2022/06/19 11:51:45;;;;;;;1.90;0.90;;;;;;;32.96;21.86;95515.69;6277067;22;20015;-84
2022/06/19 11:54:14;;;;;;;1.35;1.02;;;;;;;32.46;20.98;95487.16;6276143;22;20014;-84
2022/06/19 11:56:41;;;;;;;1.67;1.02;;;;;;;32.16;22.22;95524.28;6273950;22;20004;-83